Weather at Fond du Lac County Airport

Public forecast

Using degrees Fahrenheit for public forecast. Weather courtesy of forecast.io.

Current aviation weather report (METAR) for Fond du Lac County Airport

Retrieved 2021/01/15 12:53 UTC (47 minutes ago):

KFLD 151253Z AUTO 10004KT 10SM FEW026 OVC037 02/M01 A2942 RMK AO2 SLP970 T00171006

Closest aviation forecast (TAF) to Fond du Lac County Airport

Forecast is more than 12 hours old.

Closest forecast is Wittman Regional Airport, 13.1 nm (24.3 km) NNW. Retrieved 2020-07-19 00:22 UTC (6 months ago):

TAF KOSH 182320Z 1900/1924 20009G19KT P6SM FEW110 FM190300 20010KT P6SM VCTS SCT040CB BKN090 TEMPO 1905/1909 4SM TSRA BR OVC025CB FM191100 24012KT P6SM BKN060